createdAt,value
2018-11-25T06:33:47.574Z,36.50
2018-11-25T06:36:44.444Z,35.60
2018-11-25T06:39:43.055Z,35.90
2018-11-25T06:42:40.364Z,36.30
2018-11-25T06:45:47.340Z,36.50
2018-11-25T06:49:05.582Z,36.60
2018-11-25T06:52:14.285Z,36.60
2018-11-25T06:55:24.961Z,36.30
2018-11-25T06:58:33.829Z,35.90
2018-11-25T07:01:39.527Z,35.90
2018-11-25T07:04:37.008Z,35.90
2018-11-25T07:07:35.676Z,35.90
2018-11-25T07:10:32.975Z,35.90
2018-11-25T07:13:30.118Z,36.00
2018-11-25T07:16:26.874Z,36.10
2018-11-25T07:19:23.506Z,35.90
2018-11-25T07:22:19.890Z,34.90
2018-11-25T07:25:23.381Z,35.20
2018-11-25T07:28:19.584Z,35.00
2018-11-25T07:31:16.606Z,34.90
2018-11-25T07:34:13.130Z,35.10
2018-11-25T07:37:27.524Z,34.60
2018-11-25T07:40:24.480Z,34.20
2018-11-25T07:43:24.631Z,34.00
2018-11-25T07:46:17.857Z,34.20
2018-11-25T07:49:14.379Z,34.40
2018-11-25T07:52:10.687Z,34.40
2018-11-25T07:55:07.018Z,34.50
2018-11-25T07:58:03.819Z,34.30
2018-11-25T08:01:00.238Z,33.90
2018-11-25T08:03:59.748Z,33.60
2018-11-25T08:06:56.418Z,33.70
2018-11-25T08:09:52.356Z,33.70
2018-11-25T08:12:48.719Z,33.30
2018-11-25T08:15:44.731Z,33.00
2018-11-25T08:18:41.239Z,32.60
2018-11-25T08:21:37.810Z,32.60
2018-11-25T08:24:34.899Z,32.50
2018-11-25T08:27:34.479Z,32.30
2018-11-25T08:30:30.614Z,32.40
2018-11-25T08:33:26.359Z,32.00
2018-11-25T08:36:23.020Z,32.10
2018-11-25T08:39:20.013Z,31.80
2018-11-25T08:42:15.903Z,31.80
2018-11-25T08:45:12.945Z,31.90
2018-11-25T08:48:09.294Z,31.90
2018-11-25T08:51:05.396Z,32.10
2018-11-25T08:54:01.824Z,32.10
2018-11-25T08:56:58.566Z,32.50
2018-11-25T08:59:54.884Z,32.50
2018-11-25T09:02:51.207Z,32.40
2018-11-25T09:05:48.026Z,32.30
2018-11-25T09:08:47.019Z,32.20
2018-11-25T09:11:44.195Z,32.20
2018-11-25T09:14:40.918Z,31.80
2018-11-25T09:17:37.405Z,31.40
2018-11-25T09:20:33.745Z,31.50
2018-11-25T09:23:30.315Z,31.50
2018-11-25T09:26:26.563Z,31.50
2018-11-25T09:29:23.464Z,31.30
2018-11-25T09:32:23.148Z,31.10
2018-11-25T09:35:16.427Z,31.00
2018-11-25T09:38:12.647Z,31.10
2018-11-25T09:41:08.746Z,30.80
2018-11-25T09:44:05.130Z,30.50
2018-11-25T09:47:01.740Z,30.70
2018-11-25T09:50:00.250Z,30.70
2018-11-25T09:52:56.517Z,30.50
2018-11-25T09:55:52.938Z,30.40
2018-11-25T09:58:49.387Z,30.30
2018-11-25T10:01:46.012Z,30.50
2018-11-25T10:04:42.219Z,30.40
2018-11-25T10:07:38.415Z,30.40
2018-11-25T10:10:34.782Z,30.40
2018-11-25T10:13:31.453Z,30.40
2018-11-25T10:16:28.077Z,30.50
2018-11-25T10:19:24.322Z,30.40
2018-11-25T10:22:20.330Z,30.30
2018-11-25T10:25:17.460Z,30.00
2018-11-25T10:28:14.098Z,30.00
2018-11-25T10:31:10.599Z,30.00
2018-11-25T10:34:07.540Z,30.00
2018-11-25T10:37:04.331Z,30.60
2018-11-25T10:40:00.978Z,30.00
2018-11-25T10:42:57.375Z,30.30
2018-11-25T10:45:53.796Z,30.30
2018-11-25T10:48:54.252Z,30.00
2018-11-25T10:51:46.936Z,30.10
2018-11-25T10:54:43.470Z,30.00
2018-11-25T10:57:39.444Z,30.20
2018-11-25T11:00:53.793Z,30.50
2018-11-25T11:04:01.356Z,30.60
2018-11-25T11:07:14.002Z,30.50
2018-11-25T11:10:10.869Z,30.60
2018-11-25T11:13:07.111Z,30.80
2018-11-25T11:16:03.972Z,30.40
2018-11-25T11:19:00.018Z,30.10
2018-11-25T11:21:56.377Z,30.00
2018-11-25T11:24:52.692Z,30.00
2018-11-25T11:27:48.798Z,30.00
2018-11-25T11:30:48.694Z,29.90
2018-11-25T11:33:44.800Z,29.90
2018-11-25T11:36:40.965Z,30.00
2018-11-25T11:39:38.077Z,29.80
2018-11-25T11:42:34.501Z,29.90
2018-11-25T11:45:31.608Z,30.00
2018-11-25T11:48:28.232Z,30.30
2018-11-25T11:51:27.341Z,30.40
2018-11-25T11:54:23.356Z,30.60
2018-11-25T11:57:19.520Z,31.00
2018-11-25T12:00:26.454Z,31.50
2018-11-25T12:03:26.623Z,31.80
2018-11-25T12:06:19.259Z,32.20
2018-11-25T12:09:16.254Z,32.30
2018-11-25T12:12:12.778Z,32.50
2018-11-25T12:15:08.808Z,32.80
2018-11-25T12:18:05.546Z,32.90
2018-11-25T12:21:05.086Z,33.10
2018-11-25T12:24:01.460Z,33.30
2018-11-25T12:26:57.996Z,33.60
2018-11-25T12:29:54.582Z,33.80
2018-11-25T12:32:52.107Z,34.00
2018-11-25T12:35:48.785Z,34.20
2018-11-25T12:38:45.340Z,34.40
2018-11-25T12:41:42.012Z,34.70
2018-11-25T12:44:38.585Z,34.70
2018-11-25T12:47:34.738Z,34.70
2018-11-25T12:50:32.523Z,34.70
2018-11-25T12:53:29.128Z,35.00
2018-11-25T12:56:25.481Z,35.20
2018-11-25T12:59:21.630Z,35.40
2018-11-25T13:02:18.272Z,35.60
2018-11-25T13:05:15.161Z,35.60
2018-11-25T13:08:14.722Z,35.70
2018-11-25T13:11:11.491Z,35.90
2018-11-25T13:14:07.680Z,35.90
2018-11-25T13:17:03.953Z,36.10
2018-11-25T13:20:03.159Z,36.20
2018-11-25T13:22:59.749Z,36.50
2018-11-25T13:25:56.027Z,36.60
2018-11-25T13:28:52.657Z,36.80
2018-11-25T13:31:49.139Z,36.90
2018-11-25T13:34:45.212Z,37.10
2018-11-25T13:37:41.288Z,37.40
2018-11-25T13:40:38.211Z,37.40
2018-11-25T13:43:34.518Z,37.50
2018-11-25T13:46:30.671Z,37.40
2018-11-25T13:49:27.297Z,37.40
2018-11-25T13:52:23.647Z,37.60
2018-11-25T13:55:24.604Z,37.90
2018-11-25T13:58:21.008Z,38.10
2018-11-25T14:01:17.204Z,38.30
2018-11-25T14:04:13.494Z,38.30
2018-11-25T14:07:10.386Z,38.40
2018-11-25T14:10:06.594Z,38.50
2018-11-25T14:13:02.849Z,38.60
2018-11-25T14:15:59.037Z,38.70
2018-11-25T14:18:58.454Z,38.70
2018-11-25T14:21:55.099Z,38.60
2018-11-25T14:24:52.053Z,38.40
2018-11-25T14:27:48.734Z,38.30
2018-11-25T14:30:45.665Z,38.30
2018-11-25T14:33:41.568Z,38.50
2018-11-25T14:36:38.406Z,38.50
2018-11-25T14:39:35.328Z,38.60
2018-11-25T14:42:32.680Z,38.90
2018-11-25T14:45:29.437Z,38.90
2018-11-25T14:48:26.212Z,39.10
2018-11-25T14:51:22.619Z,39.40
2018-11-25T14:54:20.159Z,40.10
2018-11-25T14:57:16.572Z,40.70
2018-11-25T15:00:18.879Z,41.20
2018-11-25T15:03:15.954Z,41.10
2018-11-25T15:06:12.432Z,41.30
2018-11-25T15:09:09.317Z,41.60
2018-11-25T15:12:06.156Z,41.60
2018-11-25T15:15:02.194Z,41.70
2018-11-25T15:17:58.722Z,41.90
2018-11-25T15:20:55.030Z,42.00
2018-11-25T15:23:51.113Z,42.00
2018-11-25T15:26:47.312Z,42.10
2018-11-25T15:29:43.689Z,42.20
2018-11-25T15:32:40.407Z,42.40
2018-11-25T15:35:37.518Z,42.60
2018-11-25T15:38:34.796Z,42.70
2018-11-25T15:41:32.096Z,42.80
2018-11-25T15:44:29.863Z,42.90
2018-11-25T15:47:27.270Z,43.20
2018-11-25T15:50:29.456Z,43.70
2018-11-25T15:53:26.635Z,43.90
2018-11-25T15:56:23.790Z,43.60
2018-11-25T15:59:20.788Z,43.40
2018-11-25T16:02:17.807Z,43.30
2018-11-25T16:05:16.151Z,43.40
2018-11-25T16:08:12.858Z,43.70
2018-11-25T16:11:09.987Z,44.00
2018-11-25T16:14:06.872Z,44.20
2018-11-25T16:17:04.563Z,44.40
2018-11-25T16:20:01.305Z,44.40
2018-11-25T16:23:22.389Z,44.40
2018-11-25T16:26:24.671Z,44.40
2018-11-25T16:29:26.602Z,43.90
2018-11-25T16:32:22.686Z,44.40
2018-11-25T16:35:19.145Z,44.30
2018-11-25T16:38:16.061Z,44.30
2018-11-25T16:41:12.120Z,44.20
2018-11-25T16:44:08.343Z,44.10
2018-11-25T16:47:05.052Z,44.00
2018-11-25T16:50:00.865Z,44.00
2018-11-25T16:52:57.446Z,43.90
2018-11-25T16:55:53.420Z,43.90
2018-11-25T16:58:49.793Z,43.80
2018-11-25T17:01:46.187Z,43.80
2018-11-25T17:04:42.596Z,43.70
2018-11-25T17:07:41.589Z,43.60
2018-11-25T17:10:38.425Z,43.70
2018-11-25T17:13:35.288Z,43.60
2018-11-25T17:16:31.857Z,43.70
2018-11-25T17:19:28.121Z,43.70
2018-11-25T17:22:24.443Z,43.70
2018-11-25T17:25:20.951Z,43.70
2018-11-25T17:28:20.092Z,43.60
2018-11-25T17:31:16.725Z,43.60
2018-11-25T17:34:13.354Z,43.80
2018-11-25T17:37:10.543Z,44.00
2018-11-25T17:40:07.005Z,44.20
2018-11-25T17:43:03.435Z,44.40
2018-11-25T17:46:00.592Z,44.50
2018-11-25T17:48:57.259Z,44.70
2018-11-25T17:51:53.871Z,44.90
2018-11-25T17:54:50.189Z,45.10
2018-11-25T17:57:46.581Z,45.20
2018-11-25T18:00:58.606Z,45.20
2018-11-25T18:03:57.699Z,45.20
2018-11-25T18:06:53.686Z,45.20
2018-11-25T18:09:49.678Z,45.30
2018-11-25T18:12:45.799Z,45.50
2018-11-25T18:15:41.979Z,45.80
2018-11-25T18:18:52.472Z,46.10
2018-11-25T18:21:48.606Z,46.30
2018-11-25T18:24:45.504Z,46.50
2018-11-25T18:27:42.131Z,46.80
2018-11-25T18:30:38.218Z,47.00
2018-11-25T18:33:35.165Z,47.00
2018-11-25T18:36:32.132Z,47.00
2018-11-25T18:39:28.181Z,47.10
2018-11-25T18:42:24.801Z,47.30
2018-11-25T18:45:25.174Z,47.30
2018-11-25T18:48:22.577Z,47.20
2018-11-25T18:51:19.240Z,47.00
2018-11-25T18:54:16.159Z,47.00
2018-11-25T18:57:12.715Z,47.00
2018-11-25T19:00:11.548Z,46.90
2018-11-25T19:03:07.572Z,46.90
2018-11-25T19:06:03.912Z,46.90
2018-11-25T19:09:00.386Z,47.00
2018-11-25T19:11:56.689Z,47.10
2018-11-25T19:14:52.980Z,47.10
2018-11-25T19:17:49.623Z,46.90
2018-11-25T19:20:49.305Z,46.50
2018-11-25T19:23:45.656Z,46.10
2018-11-25T19:26:41.712Z,45.80
2018-11-25T19:29:37.904Z,45.50
2018-11-25T19:32:35.265Z,45.40
2018-11-25T19:35:31.537Z,45.30
2018-11-25T19:38:27.781Z,45.20
2018-11-25T19:41:24.445Z,45.20
2018-11-25T19:44:21.053Z,45.30
2018-11-25T19:47:17.461Z,45.50
2018-11-25T19:50:20.913Z,45.70
2018-11-25T19:53:17.758Z,45.70
2018-11-25T19:56:13.997Z,45.70
2018-11-25T19:59:22.649Z,45.60
2018-11-25T20:02:11.203Z,45.70
2018-11-25T20:05:08.121Z,45.70
2018-11-25T20:08:05.076Z,45.70
2018-11-25T20:11:02.018Z,45.70
2018-11-25T20:13:59.115Z,45.70
2018-11-25T20:17:11.806Z,45.80
2018-11-25T20:20:08.649Z,45.80
2018-11-25T20:23:05.291Z,46.00
2018-11-25T20:26:02.125Z,45.90
2018-11-25T20:28:58.931Z,45.90
2018-11-25T20:32:11.730Z,45.80
2018-11-25T20:35:08.942Z,45.90
2018-11-25T20:38:22.185Z,46.00
2018-11-25T20:41:24.319Z,46.10
2018-11-25T20:44:21.143Z,46.10
2018-11-25T20:47:17.794Z,46.10
2018-11-25T20:50:16.435Z,46.10
2018-11-25T20:53:30.164Z,46.20
2018-11-25T20:56:29.578Z,46.20
2018-11-25T20:59:26.364Z,46.20
2018-11-25T21:02:28.976Z,46.30
2018-11-25T21:05:19.820Z,46.40
2018-11-25T21:08:17.286Z,46.50
2018-11-25T21:11:13.557Z,46.70
2018-11-25T21:14:10.784Z,47.00
2018-11-25T21:17:07.294Z,47.20
2018-11-25T21:20:03.915Z,47.40
2018-11-25T21:23:00.214Z,47.70
2018-11-25T21:25:56.608Z,47.70
2018-11-25T21:28:53.238Z,47.70
2018-11-25T21:31:49.699Z,47.70
2018-11-25T21:34:45.847Z,47.70
2018-11-25T21:37:42.466Z,47.80
2018-11-25T21:40:39.496Z,47.80
2018-11-25T21:43:35.615Z,47.80
2018-11-25T21:46:32.100Z,47.90
2018-11-25T21:49:28.915Z,47.90
2018-11-25T21:52:24.925Z,48.00
2018-11-25T21:55:24.429Z,48.00
2018-11-25T21:58:20.683Z,48.10
2018-11-25T22:01:17.045Z,48.20
2018-11-25T22:04:13.432Z,48.30
2018-11-25T22:07:10.102Z,48.20
2018-11-25T22:10:09.707Z,48.30
2018-11-25T22:13:05.989Z,48.30
2018-11-25T22:16:05.439Z,48.20
2018-11-25T22:19:02.302Z,48.40
2018-11-25T22:21:57.870Z,48.40
2018-11-25T22:24:54.210Z,48.50
2018-11-25T22:27:50.323Z,48.50
2018-11-25T22:30:46.435Z,48.40
2018-11-25T22:33:42.846Z,48.40
2018-11-25T22:36:39.972Z,48.40
2018-11-25T22:39:36.300Z,48.40
2018-11-25T22:42:32.698Z,48.20
2018-11-25T22:45:29.119Z,48.20
2018-11-25T22:48:25.280Z,48.30
2018-11-25T22:51:21.895Z,48.30
2018-11-25T22:54:18.737Z,48.40
2018-11-25T22:57:15.075Z,48.50
2018-11-25T23:00:33.311Z,48.60
2018-11-25T23:03:30.317Z,48.70
2018-11-25T23:07:04.688Z,48.70
2018-11-25T23:10:01.195Z,49.20
2018-11-25T23:12:57.374Z,48.80
2018-11-25T23:15:53.238Z,49.00
2018-11-25T23:18:49.440Z,49.20
2018-11-25T23:21:45.703Z,49.40
2018-11-25T23:24:42.518Z,49.60
2018-11-25T23:27:39.209Z,49.70
2018-11-25T23:30:36.003Z,49.60
2018-11-25T23:33:35.298Z,49.60
2018-11-25T23:36:31.956Z,49.50
2018-11-25T23:39:28.661Z,49.30
2018-11-25T23:42:25.400Z,49.30
2018-11-25T23:45:22.428Z,49.30
2018-11-25T23:48:18.989Z,49.40
2018-11-25T23:51:15.121Z,49.80
2018-11-25T23:54:12.884Z,50.00
2018-11-25T23:57:11.825Z,50.10
